Météo aviation pour un terrain ou une ville
Choisir un ou une

Vous pouvez entrer RAPIDEMENT les premières lettres pour sélectionner

Aéroport choisi : LFCK - CASTRES - MAZAMET
Visibilité
NU BKN;700, NU BKN;1900, NU OVC;2300


Supérieure à 10 km

Soleil : Lever à 08:15 Coucher à 18:55
Date et heure locale 21/10/2019 00:39
Il fait nuit
Distance Terre - Lune
378033 kms

Phase actuelle: Dernier quartier
Température
Pression
Humidité
Force du vent
Direction du vent
Temps présent
Nuageux

Ensoleillement : 40 %
Heure d'observation : 2019/10/21 00:30. Soit il y a 0 H 9 mn
Décodage METAR, TAF et désign par Philippe Guiraud
METAR : 2019/10/20 22:30 LFCK 202230Z AUTO 27006KT 9999 BKN022 BKN058 OVC070 13/11 Q1015
Prévisions (décodage des TAF)
Pas de prévisions (TAF) pour cette station
Historique pour les derniéres 24 heures
Carte satellite actuelle
Satellite Image